createdAt,value
2018-02-21T00:00:50.838Z,1.18
2018-02-21T00:01:50.907Z,1.17
2018-02-21T00:02:50.836Z,1.18
2018-02-21T00:03:50.910Z,1.15
2018-02-21T00:04:50.841Z,1.15
2018-02-21T00:05:50.910Z,1.12
2018-02-21T00:06:50.851Z,1.12
2018-02-21T00:07:50.956Z,1.12
2018-02-21T00:08:50.916Z,1.12
2018-02-21T00:09:50.856Z,1.12
2018-02-21T00:10:50.845Z,1.11
2018-02-21T00:11:50.895Z,1.11
2018-02-21T00:12:50.943Z,1.11
2018-02-21T00:13:50.886Z,1.09
2018-02-21T00:14:50.905Z,1.11
2018-02-21T00:15:50.895Z,1.09
2018-02-21T00:16:50.956Z,1.09
2018-02-21T00:17:50.920Z,1.09
2018-02-21T00:18:50.851Z,1.08
2018-02-21T00:19:50.922Z,1.08
2018-02-21T00:20:50.849Z,1.08
2018-02-21T00:21:50.956Z,1.09
2018-02-21T00:22:50.854Z,1.09
2018-02-21T00:23:50.850Z,1.09
2018-02-21T00:24:50.922Z,1.09
2018-02-21T00:25:50.850Z,1.09
2018-02-21T00:26:50.923Z,1.09
2018-02-21T00:27:50.862Z,1.11
2018-02-21T00:28:50.827Z,1.12
2018-02-21T00:29:50.933Z,1.12
2018-02-21T00:30:50.936Z,1.11
2018-02-21T00:31:50.877Z,1.09
2018-02-21T00:32:50.867Z,1.11
2018-02-21T00:33:50.957Z,1.09
2018-02-21T00:34:50.940Z,1.09
2018-02-21T00:35:50.903Z,1.06
2018-02-21T00:36:50.868Z,1.04
2018-02-21T00:37:50.890Z,1.02
2018-02-21T00:38:50.868Z,1.01
2018-02-21T00:39:50.943Z,0.97
2018-02-21T00:40:50.842Z,0.95
2018-02-21T00:41:50.871Z,0.93
2018-02-21T00:42:50.944Z,0.88
2018-02-21T00:43:50.873Z,0.86
2018-02-21T00:44:50.874Z,0.81
2018-02-21T00:45:50.932Z,0.79
2018-02-21T00:46:50.946Z,0.75
2018-02-21T00:47:50.959Z,0.65
2018-02-21T00:48:50.846Z,0.61
2018-02-21T00:49:50.871Z,0.53
2018-02-21T00:50:50.868Z,0.44
2018-02-21T00:51:50.880Z,0.38
2018-02-21T00:52:50.957Z,0.34
2018-02-21T00:53:50.968Z,0.31
2018-02-21T00:54:50.971Z,0.26
2018-02-21T00:55:50.883Z,0.20
2018-02-21T00:56:50.950Z,0.15
2018-02-21T00:57:50.916Z,0.09
2018-02-21T00:58:50.909Z,0.04
2018-02-21T00:59:50.922Z,-0.01
2018-02-21T01:00:50.989Z,-0.06
2018-02-21T01:01:50.935Z,-0.10
2018-02-21T01:02:50.870Z,-0.15
2018-02-21T01:03:50.972Z,-0.18
2018-02-21T01:04:50.985Z,-0.22
2018-02-21T01:05:50.991Z,-0.25
2018-02-21T01:06:50.926Z,-0.31
2018-02-21T01:07:50.979Z,-0.38
2018-02-21T01:08:50.952Z,-0.43
2018-02-21T01:09:50.933Z,-0.49
2018-02-21T01:10:50.987Z,-0.55
2018-02-21T01:11:50.882Z,-0.62
2018-02-21T01:12:50.989Z,-0.66
2018-02-21T01:13:50.964Z,-0.75
2018-02-21T01:14:50.986Z,-0.82
2018-02-21T01:15:50.878Z,-0.88
2018-02-21T01:16:50.966Z,-0.97
2018-02-21T01:17:50.981Z,-1.03
2018-02-21T01:18:51.015Z,-1.11
2018-02-21T01:19:50.993Z,-1.15
2018-02-21T01:20:50.996Z,-1.19
2018-02-21T01:21:50.879Z,-1.26
2018-02-21T01:22:50.940Z,-1.30
2018-02-21T01:23:50.938Z,-1.38
2018-02-21T01:24:50.943Z,-1.38
2018-02-21T01:25:50.958Z,-1.41
2018-02-21T01:26:50.938Z,-1.38
2018-02-21T01:27:50.946Z,-1.32
2018-02-21T01:28:50.892Z,-1.29
2018-02-21T01:29:50.905Z,-1.30
2018-02-21T01:30:50.937Z,-1.26
2018-02-21T01:31:50.995Z,-1.26
2018-02-21T01:32:50.892Z,-1.26
2018-02-21T01:33:51.003Z,-1.29
2018-02-21T01:34:50.967Z,-1.29
2018-02-21T01:35:50.932Z,-1.29
2018-02-21T01:36:50.982Z,-1.30
2018-02-21T01:37:50.948Z,-1.37
2018-02-21T01:38:50.947Z,-1.43
2018-02-21T01:39:50.954Z,-1.48
2018-02-21T01:40:50.973Z,-1.51
2018-02-21T01:41:50.932Z,-1.54
2018-02-21T01:42:50.941Z,-1.55
2018-02-21T01:43:51.003Z,-1.58
2018-02-21T01:44:51.034Z,-1.66
2018-02-21T01:45:50.948Z,-1.69
2018-02-21T01:46:50.974Z,-1.69
2018-02-21T01:47:50.966Z,-1.71
2018-02-21T01:48:50.874Z,-1.73
2018-02-21T01:49:50.848Z,-1.74
2018-02-21T01:50:50.851Z,-1.76
2018-02-21T01:51:50.877Z,-1.76
2018-02-21T01:52:50.872Z,-1.70
2018-02-21T01:53:50.876Z,-1.67
2018-02-21T01:54:50.878Z,-1.65
2018-02-21T01:55:50.961Z,-1.62
2018-02-21T01:56:50.874Z,-1.58
2018-02-21T01:57:50.949Z,-1.49
2018-02-21T01:58:50.982Z,-1.43
2018-02-21T01:59:50.923Z,-1.43
2018-02-21T02:00:51.011Z,-1.41
2018-02-21T02:01:50.986Z,-1.41
2018-02-21T02:02:50.948Z,-1.41
2018-02-21T02:03:51.028Z,-1.37
2018-02-21T02:04:51.020Z,-1.30
2018-02-21T02:05:50.957Z,-1.22
2018-02-21T02:06:50.993Z,-1.15
2018-02-21T02:07:50.918Z,-1.13
2018-02-21T02:08:50.924Z,-1.10
2018-02-21T02:09:50.939Z,-1.06
2018-02-21T02:10:50.925Z,-1.03
2018-02-21T02:11:51.000Z,-1.00
2018-02-21T02:12:50.941Z,-1.02
2018-02-21T02:13:50.925Z,-1.04
2018-02-21T02:14:51.002Z,-1.07
2018-02-21T02:15:50.926Z,-1.11
2018-02-21T02:16:51.008Z,-1.17
2018-02-21T02:17:50.928Z,-1.22
2018-02-21T02:18:51.004Z,-1.28
2018-02-21T02:19:50.920Z,-1.30
2018-02-21T02:20:50.918Z,-1.32
2018-02-21T02:21:50.922Z,-1.36
2018-02-21T02:22:51.060Z,-1.40
2018-02-21T02:23:50.919Z,-1.40
2018-02-21T02:24:51.005Z,-1.40
2018-02-21T02:25:50.924Z,-1.33
2018-02-21T02:26:51.026Z,-1.32
2018-02-21T02:27:51.035Z,-1.32
2018-02-21T02:28:50.938Z,-1.33
2018-02-21T02:29:50.876Z,-1.36
2018-02-21T02:30:50.961Z,-1.36
2018-02-21T02:31:50.872Z,-1.37
2018-02-21T02:32:50.904Z,-1.40
2018-02-21T02:33:50.986Z,-1.37
2018-02-21T02:34:50.965Z,-1.40
2018-02-21T02:35:50.874Z,-1.43
2018-02-21T02:36:50.930Z,-1.48
2018-02-21T02:37:50.946Z,-1.52
2018-02-21T02:38:51.014Z,-1.55
2018-02-21T02:39:50.938Z,-1.60
2018-02-21T02:40:51.003Z,-1.66
2018-02-21T02:41:50.931Z,-1.71
2018-02-21T02:42:51.006Z,-1.77
2018-02-21T02:43:50.934Z,-1.84
2018-02-21T02:44:51.004Z,-1.98
2018-02-21T02:45:50.934Z,-2.08
2018-02-21T02:46:50.940Z,-2.18
2018-02-21T02:47:51.006Z,-2.26
2018-02-21T02:48:51.034Z,-2.34
2018-02-21T02:49:50.948Z,-2.42
2018-02-21T02:50:50.914Z,-2.48
2018-02-21T02:51:51.036Z,-2.53
2018-02-21T02:52:51.028Z,-2.61
2018-02-21T02:53:50.950Z,-2.71
2018-02-21T02:54:50.972Z,-2.78
2018-02-21T02:55:50.952Z,-2.72
2018-02-21T02:56:51.029Z,-2.53
2018-02-21T02:57:51.040Z,-2.44
2018-02-21T02:58:51.022Z,-2.40
2018-02-21T02:59:50.945Z,-2.38
2018-02-21T03:00:51.025Z,-2.41
2018-02-21T03:01:51.019Z,-2.48
2018-02-21T03:02:50.964Z,-2.52
2018-02-21T03:03:50.946Z,-2.59
2018-02-21T03:04:51.030Z,-2.63
2018-02-21T03:05:51.055Z,-2.70
2018-02-21T03:06:51.084Z,-2.76
2018-02-21T03:07:51.058Z,-2.74
2018-02-21T03:08:50.968Z,-2.60
2018-02-21T03:09:50.991Z,-2.55
2018-02-21T03:10:51.024Z,-2.52
2018-02-21T03:11:51.061Z,-2.52
2018-02-21T03:12:51.026Z,-2.49
2018-02-21T03:13:50.998Z,-2.52
2018-02-21T03:14:51.005Z,-2.55
2018-02-21T03:15:50.970Z,-2.63
2018-02-21T03:16:51.006Z,-2.67
2018-02-21T03:17:50.956Z,-2.75
2018-02-21T03:18:51.025Z,-2.82
2018-02-21T03:19:50.954Z,-2.89
2018-02-21T03:20:51.027Z,-2.94
2018-02-21T03:21:50.955Z,-3.04
2018-02-21T03:22:51.028Z,-3.10
2018-02-21T03:23:50.956Z,-3.19
2018-02-21T03:24:51.035Z,-3.24
2018-02-21T03:25:50.964Z,-3.34
2018-02-21T03:26:51.036Z,-3.38
2018-02-21T03:27:50.960Z,-3.43
2018-02-21T03:28:51.049Z,-3.43
2018-02-21T03:29:51.045Z,-3.40
2018-02-21T03:30:51.048Z,-3.45
2018-02-21T03:31:51.002Z,-3.51
2018-02-21T03:32:50.971Z,-3.57
2018-02-21T03:33:51.048Z,-3.63
2018-02-21T03:34:51.038Z,-3.69
2018-02-21T03:35:50.975Z,-3.71
2018-02-21T03:36:51.054Z,-3.75
2018-02-21T03:37:51.048Z,-3.80
2018-02-21T03:38:50.978Z,-3.84
2018-02-21T03:39:51.042Z,-3.86
2018-02-21T03:40:51.048Z,-3.88
2018-02-21T03:41:50.948Z,-3.90
2018-02-21T03:42:51.109Z,-3.92
2018-02-21T03:43:51.014Z,-4.01
2018-02-21T03:44:51.050Z,-4.02
2018-02-21T03:45:51.074Z,-3.95
2018-02-21T03:46:51.028Z,-3.97
2018-02-21T03:47:51.081Z,-4.02
2018-02-21T03:48:51.060Z,-4.02
2018-02-21T03:49:51.059Z,-3.97
2018-02-21T03:50:50.984Z,-3.97
2018-02-21T03:51:51.059Z,-3.94
2018-02-21T03:52:51.062Z,-3.94
2018-02-21T03:53:50.986Z,-3.92
2018-02-21T03:54:50.982Z,-3.84
2018-02-21T03:55:50.990Z,-3.87
2018-02-21T03:56:51.061Z,-3.97
2018-02-21T03:57:50.993Z,-4.01
2018-02-21T03:58:50.943Z,-3.98
2018-02-21T03:59:50.840Z,-3.99
2018-02-21T04:00:50.945Z,-4.02
2018-02-21T04:01:50.851Z,-3.99
2018-02-21T04:02:50.998Z,-3.97
2018-02-21T04:03:50.845Z,-3.87
2018-02-21T04:04:50.851Z,-3.84
2018-02-21T04:05:50.945Z,-3.77
2018-02-21T04:06:50.916Z,-3.42
2018-02-21T04:07:51.011Z,-3.20
2018-02-21T04:08:51.071Z,-3.07
2018-02-21T04:09:51.119Z,-3.04
2018-02-21T04:10:51.061Z,-3.07
2018-02-21T04:11:51.096Z,-3.15
2018-02-21T04:12:51.097Z,-3.07
2018-02-21T04:13:51.039Z,-2.98
2018-02-21T04:14:50.984Z,-2.93
2018-02-21T04:15:51.099Z,-2.92
2018-02-21T04:16:51.072Z,-2.83
2018-02-21T04:17:51.032Z,-2.74
2018-02-21T04:18:51.062Z,-2.67
2018-02-21T04:19:50.989Z,-2.64
2018-02-21T04:20:51.064Z,-2.64
2018-02-21T04:21:50.989Z,-2.64
2018-02-21T04:22:51.066Z,-2.68
2018-02-21T04:23:51.019Z,-2.71
2018-02-21T04:24:51.065Z,-2.71
2018-02-21T04:25:50.995Z,-2.70
2018-02-21T04:26:51.067Z,-2.65
2018-02-21T04:27:50.995Z,-2.64
2018-02-21T04:28:51.039Z,-2.59
2018-02-21T04:29:51.167Z,-2.51
2018-02-21T04:30:50.993Z,-2.53
2018-02-21T04:31:51.103Z,-2.51
2018-02-21T04:32:50.990Z,-2.48
2018-02-21T04:33:51.112Z,-2.42
2018-02-21T04:34:51.112Z,-2.40
2018-02-21T04:35:51.113Z,-2.42
2018-02-21T04:36:51.006Z,-2.47
2018-02-21T04:37:51.118Z,-2.52
2018-02-21T04:38:51.085Z,-2.59
2018-02-21T04:39:50.987Z,-2.65
2018-02-21T04:40:51.109Z,-2.72
2018-02-21T04:41:51.007Z,-2.71
2018-02-21T04:42:51.116Z,-2.72
2018-02-21T04:43:51.021Z,-2.71
2018-02-21T04:44:51.108Z,-2.71
2018-02-21T04:45:51.106Z,-2.71
2018-02-21T04:46:51.006Z,-2.71
2018-02-21T04:47:51.087Z,-2.75
2018-02-21T04:48:51.086Z,-2.78
2018-02-21T04:49:51.023Z,-2.82
2018-02-21T04:50:51.110Z,-2.90
2018-02-21T04:51:51.098Z,-2.96
2018-02-21T04:52:51.116Z,-2.98
2018-02-21T04:53:51.087Z,-3.00
2018-02-21T04:54:51.152Z,-2.98
2018-02-21T04:55:51.119Z,-2.97
2018-02-21T04:56:51.007Z,-2.97
2018-02-21T04:57:51.030Z,-2.94
2018-02-21T04:58:51.081Z,-2.93
2018-02-21T04:59:51.025Z,-2.96
2018-02-21T05:00:51.026Z,-3.01
2018-02-21T05:01:51.028Z,-3.04
2018-02-21T05:02:51.089Z,-3.10
2018-02-21T05:03:51.020Z,-3.11
2018-02-21T05:04:51.025Z,-3.15
2018-02-21T05:05:51.090Z,-3.16
2018-02-21T05:06:51.023Z,-3.16
2018-02-21T05:07:51.096Z,-3.10
2018-02-21T05:08:51.030Z,-3.05
2018-02-21T05:09:51.073Z,-3.07
2018-02-21T05:10:51.032Z,-3.07
2018-02-21T05:11:51.109Z,-3.05
2018-02-21T05:12:51.034Z,-3.04
2018-02-21T05:13:51.118Z,-3.04
2018-02-21T05:14:51.057Z,-2.98
2018-02-21T05:15:51.050Z,-2.98
2018-02-21T05:16:51.110Z,-2.98
2018-02-21T05:17:51.111Z,-2.96
2018-02-21T05:18:51.137Z,-2.93
2018-02-21T05:19:51.070Z,-2.90
2018-02-21T05:20:51.114Z,-2.89
2018-02-21T05:21:51.079Z,-2.87
2018-02-21T05:22:51.106Z,-2.85
2018-02-21T05:23:51.048Z,-2.82
2018-02-21T05:24:51.087Z,-2.83
2018-02-21T05:25:51.172Z,-2.81
2018-02-21T05:26:51.143Z,-2.81
2018-02-21T05:27:51.051Z,-2.79
2018-02-21T05:28:51.108Z,-2.79
2018-02-21T05:29:51.149Z,-2.79
2018-02-21T05:30:51.028Z,-2.78
2018-02-21T05:31:51.082Z,-2.79
2018-02-21T05:32:51.014Z,-2.79
2018-02-21T05:33:51.113Z,-2.75
2018-02-21T05:34:51.035Z,-2.74
2018-02-21T05:35:51.111Z,-2.75
2018-02-21T05:36:51.032Z,-2.72
2018-02-21T05:37:51.121Z,-2.75
2018-02-21T05:38:51.144Z,-2.81
2018-02-21T05:39:51.057Z,-2.83
2018-02-21T05:40:51.174Z,-2.90
2018-02-21T05:41:51.042Z,-2.94
2018-02-21T05:42:51.156Z,-3.00
2018-02-21T05:43:51.039Z,-3.07
2018-02-21T05:44:51.160Z,-3.12
2018-02-21T05:45:51.147Z,-3.16
2018-02-21T05:46:51.103Z,-3.19
2018-02-21T05:47:51.146Z,-3.24
2018-02-21T05:48:51.059Z,-3.30
2018-02-21T05:49:51.124Z,-3.35
2018-02-21T05:50:51.099Z,-3.35
2018-02-21T05:51:51.127Z,-3.30
2018-02-21T05:52:51.024Z,-3.31
2018-02-21T05:53:51.103Z,-3.34
2018-02-21T05:54:51.101Z,-3.36
2018-02-21T05:55:51.132Z,-3.38
2018-02-21T05:56:51.063Z,-3.40
2018-02-21T05:57:51.126Z,-3.40
2018-02-21T05:58:51.108Z,-3.38
2018-02-21T05:59:51.209Z,-3.43
2018-02-21T06:00:51.102Z,-3.42
2018-02-21T06:01:51.149Z,-3.39
2018-02-21T06:02:51.140Z,-3.31
2018-02-21T06:03:51.139Z,-3.20
2018-02-21T06:04:51.170Z,-3.16
2018-02-21T06:05:51.158Z,-3.05
2018-02-21T06:06:51.055Z,-3.05
2018-02-21T06:07:51.152Z,-3.03
2018-02-21T06:08:51.127Z,-2.97
2018-02-21T06:09:51.129Z,-2.92
2018-02-21T06:10:51.135Z,-2.93
2018-02-21T06:11:51.062Z,-2.96
2018-02-21T06:12:51.132Z,-2.94
2018-02-21T06:13:51.070Z,-2.94
2018-02-21T06:14:51.135Z,-2.96
2018-02-21T06:15:51.065Z,-2.94
2018-02-21T06:16:51.012Z,-2.90
2018-02-21T06:17:51.065Z,-2.89
2018-02-21T06:18:51.058Z,-2.92
2018-02-21T06:19:51.060Z,-2.94
2018-02-21T06:20:51.115Z,-2.94
2018-02-21T06:21:51.120Z,-2.96
2018-02-21T06:22:51.153Z,-2.98
2018-02-21T06:23:51.123Z,-3.00
2018-02-21T06:24:51.046Z,-3.01
2018-02-21T06:25:51.121Z,-3.04
2018-02-21T06:26:51.128Z,-3.04
2018-02-21T06:27:51.106Z,-3.05
2018-02-21T06:28:51.085Z,-3.08
2018-02-21T06:29:51.187Z,-3.10
2018-02-21T06:30:51.148Z,-3.11
2018-02-21T06:31:51.153Z,-3.10
2018-02-21T06:32:51.187Z,-3.12
2018-02-21T06:33:51.130Z,-3.16
2018-02-21T06:34:51.147Z,-3.15
2018-02-21T06:35:51.110Z,-3.16
2018-02-21T06:36:51.117Z,-3.19
2018-02-21T06:37:51.125Z,-3.19
2018-02-21T06:38:51.055Z,-3.22
2018-02-21T06:39:51.158Z,-3.22
2018-02-21T06:40:51.214Z,-3.22
2018-02-21T06:41:51.093Z,-3.26
2018-02-21T06:42:51.092Z,-3.28
2018-02-21T06:43:51.107Z,-3.31
2018-02-21T06:44:51.076Z,-3.31
2018-02-21T06:45:51.126Z,-3.30
2018-02-21T06:46:51.188Z,-3.31
2018-02-21T06:47:51.190Z,-3.28
2018-02-21T06:48:51.129Z,-3.28
2018-02-21T06:49:51.154Z,-3.35
2018-02-21T06:50:51.076Z,-3.40
2018-02-21T06:51:51.157Z,-3.45
2018-02-21T06:52:51.081Z,-3.50
2018-02-21T06:53:51.186Z,-3.53
2018-02-21T06:54:51.203Z,-3.56
2018-02-21T06:55:51.062Z,-3.54
2018-02-21T06:56:51.098Z,-3.56
2018-02-21T06:57:51.187Z,-3.58
2018-02-21T06:58:51.083Z,-3.58
2018-02-21T06:59:51.109Z,-3.61
2018-02-21T07:00:51.053Z,-3.63
2018-02-21T07:01:51.119Z,-3.65
2018-02-21T07:02:51.153Z,-3.69
2018-02-21T07:03:51.161Z,-3.76
2018-02-21T07:04:51.162Z,-3.81
2018-02-21T07:05:51.111Z,-3.86
2018-02-21T07:06:51.058Z,-3.86
2018-02-21T07:07:51.114Z,-3.91
2018-02-21T07:08:51.176Z,-3.95
2018-02-21T07:09:51.104Z,-3.98
2018-02-21T07:10:51.174Z,-3.98
2018-02-21T07:11:51.174Z,-3.99
2018-02-21T07:12:51.106Z,-3.94
2018-02-21T07:13:51.177Z,-3.92
2018-02-21T07:14:51.194Z,-3.94
2018-02-21T07:15:51.128Z,-3.97
2018-02-21T07:16:51.105Z,-3.97
2018-02-21T07:17:51.178Z,-3.95
2018-02-21T07:18:51.107Z,-3.92
2018-02-21T07:19:51.111Z,-3.91
2018-02-21T07:20:51.180Z,-3.86
2018-02-21T07:21:51.110Z,-3.81
2018-02-21T07:22:51.111Z,-3.77
2018-02-21T07:23:51.107Z,-3.71
2018-02-21T07:24:51.112Z,-3.60
2018-02-21T07:25:51.186Z,-3.45
2018-02-21T07:26:51.184Z,-3.36
2018-02-21T07:27:51.110Z,-3.35
2018-02-21T07:28:51.178Z,-3.31
2018-02-21T07:29:51.183Z,-3.26
2018-02-21T07:30:51.122Z,-3.23
2018-02-21T07:31:51.087Z,-3.20
2018-02-21T07:32:51.216Z,-3.17
2018-02-21T07:33:51.108Z,-3.12
2018-02-21T07:34:51.180Z,-3.10
2018-02-21T07:35:51.186Z,-3.04
2018-02-21T07:36:51.088Z,-3.00
2018-02-21T07:37:51.185Z,-2.97
2018-02-21T07:38:51.093Z,-2.96
2018-02-21T07:39:51.218Z,-2.90
2018-02-21T07:40:51.157Z,-2.86
2018-02-21T07:41:51.188Z,-2.83
2018-02-21T07:42:51.190Z,-2.79
2018-02-21T07:43:51.226Z,-2.78
2018-02-21T07:44:51.225Z,-2.75
2018-02-21T07:45:51.130Z,-2.74
2018-02-21T07:46:51.233Z,-2.71
2018-02-21T07:47:51.177Z,-2.68
2018-02-21T07:48:51.201Z,-2.68
2018-02-21T07:49:51.195Z,-2.67
2018-02-21T07:50:51.193Z,-2.64
2018-02-21T07:51:51.135Z,-2.61
2018-02-21T07:52:51.166Z,-2.59
2018-02-21T07:53:51.199Z,-2.59
2018-02-21T07:54:51.197Z,-2.55
2018-02-21T07:55:51.164Z,-2.55
2018-02-21T07:56:51.169Z,-2.55
2018-02-21T07:57:51.236Z,-2.53
2018-02-21T07:58:51.172Z,-2.55
2018-02-21T07:59:51.071Z,-2.55
2018-02-21T08:00:51.176Z,-2.53
2018-02-21T08:01:51.192Z,-2.49
2018-02-21T08:02:51.184Z,-2.45
2018-02-21T08:03:51.104Z,-2.38
2018-02-21T08:04:51.065Z,-2.33
2018-02-21T08:05:51.098Z,-2.29
2018-02-21T08:06:51.138Z,-2.27
2018-02-21T08:07:51.147Z,-2.24
2018-02-21T08:08:51.139Z,-2.22
2018-02-21T08:09:51.203Z,-2.16
2018-02-21T08:10:51.111Z,-2.15
2018-02-21T08:11:51.207Z,-2.11
2018-02-21T08:12:51.241Z,-2.07
2018-02-21T08:13:51.224Z,-2.00
2018-02-21T08:14:51.182Z,-1.93
2018-02-21T08:15:51.208Z,-1.87
2018-02-21T08:16:51.179Z,-1.78
2018-02-21T08:17:51.112Z,-1.65
2018-02-21T08:18:51.210Z,-1.58
2018-02-21T08:19:51.144Z,-1.55
2018-02-21T08:20:51.217Z,-1.51
2018-02-21T08:21:51.183Z,-1.47
2018-02-21T08:22:51.215Z,-1.44
2018-02-21T08:23:51.145Z,-1.41
2018-02-21T08:24:51.176Z,-1.43
2018-02-21T08:25:51.217Z,-1.36
2018-02-21T08:26:51.219Z,-1.26
2018-02-21T08:27:51.220Z,-1.21
2018-02-21T08:28:51.107Z,-1.08
2018-02-21T08:29:51.183Z,-0.95
2018-02-21T08:30:51.137Z,-0.91
2018-02-21T08:31:51.089Z,-1.00
2018-02-21T08:32:51.215Z,-1.04
2018-02-21T08:33:51.165Z,-1.03
2018-02-21T08:34:51.208Z,-1.00
2018-02-21T08:35:51.145Z,-0.95
2018-02-21T08:36:51.111Z,-0.96
2018-02-21T08:37:51.181Z,-0.97
2018-02-21T08:38:51.130Z,-0.93
2018-02-21T08:39:51.213Z,-0.81
2018-02-21T08:40:51.224Z,-0.63
2018-02-21T08:41:51.129Z,-0.61
2018-02-21T08:42:51.128Z,-0.49
2018-02-21T08:43:51.118Z,-0.32
2018-02-21T08:44:51.220Z,-0.18
2018-02-21T08:45:51.219Z,-0.08
2018-02-21T08:46:51.155Z,-0.02
2018-02-21T08:47:51.220Z,0.01
2018-02-21T08:48:51.134Z,0.12
2018-02-21T08:49:51.190Z,0.24
2018-02-21T08:50:51.131Z,0.27
2018-02-21T08:51:51.203Z,0.38
2018-02-21T08:52:51.132Z,0.49
2018-02-21T08:53:51.269Z,0.54
2018-02-21T08:54:51.140Z,0.68
2018-02-21T08:55:51.233Z,0.76
2018-02-21T08:56:51.258Z,0.81
2018-02-21T08:57:51.138Z,0.88
2018-02-21T08:58:51.279Z,0.95
2018-02-21T08:59:51.267Z,1.09
2018-02-21T09:00:51.269Z,1.12
2018-02-21T09:01:51.236Z,1.20
2018-02-21T09:02:51.136Z,1.20
2018-02-21T09:03:51.239Z,1.15
2018-02-21T09:04:51.239Z,1.17
2018-02-21T09:05:51.260Z,1.12
2018-02-21T09:06:51.220Z,0.98
2018-02-21T09:07:51.282Z,0.82
2018-02-21T09:08:51.208Z,0.68
2018-02-21T09:09:51.351Z,0.75
2018-02-21T09:10:51.242Z,0.76
2018-02-21T09:11:51.158Z,0.74
2018-02-21T09:12:51.285Z,0.72
2018-02-21T09:13:51.268Z,0.78
2018-02-21T09:14:51.173Z,0.70
2018-02-21T09:15:51.248Z,0.61
2018-02-21T09:16:51.275Z,0.53
2018-02-21T09:17:51.249Z,0.56
2018-02-21T09:18:51.288Z,0.59
2018-02-21T09:19:51.249Z,0.51
2018-02-21T09:20:51.258Z,0.45
2018-02-21T09:21:51.213Z,0.37
2018-02-21T09:22:51.173Z,0.45
2018-02-21T09:23:51.277Z,0.41
2018-02-21T09:24:51.253Z,0.51
2018-02-21T09:25:51.172Z,0.59
2018-02-21T09:26:51.214Z,0.68
2018-02-21T09:27:51.286Z,0.74
2018-02-21T09:28:51.258Z,1.01
2018-02-21T09:30:51.261Z,1.18
2018-02-21T09:31:51.186Z,1.36
2018-02-21T09:32:51.267Z,1.52
2018-02-21T09:33:51.216Z,1.74
2018-02-21T09:34:51.303Z,1.87
2018-02-21T09:35:51.263Z,1.84
2018-02-21T09:36:51.277Z,1.83
2018-02-21T09:37:51.193Z,1.91
2018-02-21T09:38:51.261Z,2.09
2018-02-21T09:39:51.195Z,2.28
2018-02-21T09:40:51.265Z,2.17
2018-02-21T09:41:51.262Z,2.06
2018-02-21T09:42:51.268Z,2.13
2018-02-21T09:43:51.193Z,2.43
2018-02-21T09:44:51.199Z,2.57
2018-02-21T09:45:51.262Z,2.70
2018-02-21T09:46:51.202Z,2.91
2018-02-21T09:47:51.207Z,3.06
2018-02-21T09:48:51.268Z,3.17
2018-02-21T09:49:51.307Z,3.42
2018-02-21T09:50:51.273Z,3.43
2018-02-21T09:51:51.310Z,3.26
2018-02-21T09:52:51.265Z,3.02
2018-02-21T09:53:51.175Z,3.01
2018-02-21T09:54:51.265Z,2.98
2018-02-21T09:55:51.192Z,2.76
2018-02-21T09:56:51.293Z,2.72
2018-02-21T09:57:51.299Z,2.59
2018-02-21T09:58:51.237Z,2.57
2018-02-21T09:59:51.305Z,2.46
2018-02-21T10:00:51.294Z,2.35
2018-02-21T10:01:51.303Z,2.28
2018-02-21T10:02:51.240Z,2.52
2018-02-21T10:03:51.283Z,2.84
2018-02-21T10:04:51.196Z,3.09
2018-02-21T10:05:51.275Z,2.87
2018-02-21T10:06:51.277Z,2.66
2018-02-21T10:07:51.183Z,2.65
2018-02-21T10:08:51.212Z,2.57
2018-02-21T10:09:51.271Z,2.77
2018-02-21T10:10:51.265Z,2.92
2018-02-21T10:11:51.186Z,3.05
2018-02-21T10:12:51.223Z,3.28
2018-02-21T10:13:51.272Z,3.58
2018-02-21T10:14:51.273Z,3.77
2018-02-21T10:15:51.184Z,3.97
2018-02-21T10:16:51.238Z,3.93
2018-02-21T10:17:51.269Z,4.03
2018-02-21T10:18:51.170Z,4.28
2018-02-21T10:19:51.294Z,4.29
2018-02-21T10:20:51.285Z,4.30
2018-02-21T10:21:51.215Z,4.39
2018-02-21T10:22:51.223Z,4.21
2018-02-21T10:23:51.221Z,4.24
2018-02-21T10:24:51.288Z,3.85
2018-02-21T10:25:51.225Z,3.74
2018-02-21T10:26:51.218Z,3.74
2018-02-21T10:27:51.295Z,3.53
2018-02-21T10:28:51.221Z,3.53
2018-02-21T10:29:51.291Z,3.72
2018-02-21T10:30:51.223Z,4.04
2018-02-21T10:31:51.293Z,4.28
2018-02-21T10:32:51.228Z,4.48
2018-02-21T10:33:51.226Z,4.81
2018-02-21T10:34:51.302Z,5.19
2018-02-21T10:35:51.230Z,5.38
2018-02-21T10:36:51.303Z,5.63
2018-02-21T10:37:51.229Z,5.02
2018-02-21T10:38:51.293Z,4.99
2018-02-21T10:39:51.227Z,5.03
2018-02-21T10:40:51.298Z,4.96
2018-02-21T10:41:51.233Z,4.92
2018-02-21T10:42:51.184Z,5.16
2018-02-21T10:43:51.230Z,5.26
2018-02-21T10:44:51.305Z,5.35
2018-02-21T10:45:51.301Z,5.49
2018-02-21T10:46:51.243Z,5.63
2018-02-21T10:47:51.245Z,5.59
2018-02-21T10:48:51.304Z,5.77
2018-02-21T10:49:51.203Z,5.84
2018-02-21T10:50:51.276Z,6.02
2018-02-21T10:51:51.274Z,6.11
2018-02-21T10:52:51.359Z,6.23
2018-02-21T10:53:51.346Z,6.51
2018-02-21T10:54:51.337Z,6.44
2018-02-21T10:55:51.278Z,6.06
2018-02-21T10:56:51.305Z,5.68
2018-02-21T10:57:51.282Z,5.38
2018-02-21T10:58:51.248Z,5.30
2018-02-21T10:59:51.171Z,5.52
2018-02-21T11:00:51.213Z,5.74
2018-02-21T11:01:51.239Z,6.09
2018-02-21T11:02:51.182Z,6.19
2018-02-21T11:03:51.251Z,6.47
2018-02-21T11:04:51.288Z,6.41
2018-02-21T11:05:51.182Z,6.36
2018-02-21T11:06:51.205Z,6.47
2018-02-21T11:07:51.292Z,6.30
2018-02-21T11:08:51.204Z,6.00
2018-02-21T11:09:51.272Z,5.73
2018-02-21T11:10:51.312Z,5.62
2018-02-21T11:11:51.336Z,5.44
2018-02-21T11:12:51.336Z,5.11
2018-02-21T11:13:51.314Z,5.04
2018-02-21T11:14:51.327Z,5.04
2018-02-21T11:15:51.317Z,4.88
2018-02-21T11:16:51.242Z,4.69
2018-02-21T11:17:51.240Z,4.54
2018-02-21T11:18:51.318Z,4.46
2018-02-21T11:19:51.252Z,4.39
2018-02-21T11:20:51.418Z,4.37
2018-02-21T11:21:51.325Z,4.43
2018-02-21T11:22:51.254Z,4.55
2018-02-21T11:23:51.259Z,4.67
2018-02-21T11:24:51.270Z,4.75
2018-02-21T11:25:51.324Z,4.74
2018-02-21T11:26:51.268Z,4.85
2018-02-21T11:27:51.326Z,4.81
2018-02-21T11:28:51.377Z,4.71
2018-02-21T11:29:51.283Z,4.70
2018-02-21T11:30:51.310Z,4.84
2018-02-21T11:31:51.261Z,4.89
2018-02-21T11:32:51.306Z,4.89
2018-02-21T11:33:51.228Z,4.82
2018-02-21T11:34:51.310Z,4.80
2018-02-21T11:35:51.307Z,4.81
2018-02-21T11:36:51.266Z,4.81
2018-02-21T11:37:51.220Z,4.92
2018-02-21T11:38:51.225Z,4.87
2018-02-21T11:39:51.300Z,4.91
2018-02-21T11:40:51.311Z,4.96
2018-02-21T11:41:51.331Z,5.15
2018-02-21T11:42:51.352Z,5.44
2018-02-21T11:43:51.317Z,5.55
2018-02-21T11:44:51.366Z,5.59
2018-02-21T11:45:51.343Z,5.63
2018-02-21T11:46:51.260Z,5.74
2018-02-21T11:47:51.299Z,5.97
2018-02-21T11:48:51.274Z,5.91
2018-02-21T11:49:51.268Z,5.45
2018-02-21T11:50:51.375Z,5.35
2018-02-21T11:51:51.276Z,5.33
2018-02-21T11:52:51.339Z,5.53
2018-02-21T11:53:51.276Z,5.73
2018-02-21T11:54:51.273Z,5.96
2018-02-21T11:55:51.365Z,5.70
2018-02-21T11:56:51.342Z,5.42
2018-02-21T11:57:51.342Z,5.44
2018-02-21T11:58:51.277Z,5.49
2018-02-21T11:59:51.371Z,5.71
2018-02-21T12:00:51.379Z,5.56
2018-02-21T12:01:51.380Z,5.45
2018-02-21T12:02:51.265Z,5.21
2018-02-21T12:03:51.370Z,5.16
2018-02-21T12:04:51.370Z,5.15
2018-02-21T12:05:51.376Z,5.15
2018-02-21T12:06:51.343Z,5.26
2018-02-21T12:07:51.315Z,5.64
2018-02-21T12:08:51.317Z,5.66
2018-02-21T12:09:51.359Z,5.73
2018-02-21T12:10:51.389Z,5.68
2018-02-21T12:11:51.386Z,5.53
2018-02-21T12:12:51.352Z,5.67
2018-02-21T12:13:51.316Z,5.71
2018-02-21T12:14:51.395Z,5.62
2018-02-21T12:15:51.373Z,5.53
2018-02-21T12:16:51.274Z,5.62
2018-02-21T12:17:51.297Z,5.52
2018-02-21T12:18:51.254Z,5.79
2018-02-21T12:19:51.333Z,5.92
2018-02-21T12:20:51.281Z,5.92
2018-02-21T12:21:51.374Z,5.99
2018-02-21T12:22:51.392Z,6.11
2018-02-21T12:23:51.395Z,6.55
2018-02-21T12:24:51.436Z,7.04
2018-02-21T12:25:51.361Z,7.00
2018-02-21T12:26:51.389Z,6.94
2018-02-21T12:27:51.387Z,6.86
2018-02-21T12:28:51.402Z,6.90
2018-02-21T12:29:51.338Z,6.70
2018-02-21T12:30:51.384Z,6.43
2018-02-21T12:31:51.342Z,6.43
2018-02-21T12:32:51.383Z,6.57
2018-02-21T12:33:51.269Z,6.68
2018-02-21T12:34:51.373Z,6.87
2018-02-21T12:35:51.399Z,6.64
2018-02-21T12:36:51.347Z,6.61
2018-02-21T12:37:51.330Z,6.87
2018-02-21T12:38:51.273Z,7.01
2018-02-21T12:39:51.387Z,7.13
2018-02-21T12:40:51.276Z,7.26
2018-02-21T12:41:51.298Z,7.02
2018-02-21T12:42:51.343Z,6.84
2018-02-21T12:43:51.351Z,6.90
2018-02-21T12:44:51.336Z,6.59
2018-02-21T12:45:51.369Z,6.31
2018-02-21T12:46:51.416Z,6.61
2018-02-21T12:47:51.375Z,6.63
2018-02-21T12:48:51.312Z,6.64
2018-02-21T12:49:51.374Z,6.71
2018-02-21T12:50:51.416Z,6.78
2018-02-21T12:51:51.374Z,6.87
2018-02-21T12:52:51.313Z,6.72
2018-02-21T12:53:51.309Z,6.82
2018-02-21T12:54:51.358Z,6.56
2018-02-21T12:55:51.405Z,6.40
2018-02-21T12:56:51.295Z,6.29
2018-02-21T12:57:51.408Z,6.51
2018-02-21T12:58:51.417Z,6.36
2018-02-21T12:59:51.381Z,6.29
2018-02-21T13:00:51.306Z,6.52
2018-02-21T13:01:51.407Z,6.79
2018-02-21T13:02:51.403Z,6.37
2018-02-21T13:03:51.419Z,6.45